Time;durP1;ratioP1;P1;durP2;ratioP2;P2;SDS_P1;SDS_P2;PMS_P1;PMS_P2;Temp;Humidity;BMP_temperature;BMP_pressure;BME280_temperature;BME280_humidity;BME280_pressure;Samples;Min_cycle;Max_cycle;Signal;HPM_P1;HPM_P2
2023/07/25 00:01:54;;;;;;;;;;;;;;;22.95;100.00;98556.09;5012322;28;20368;-84
2023/07/25 00:04:19;;;;;;;;;;;;;;;22.95;100.00;98560.66;5011009;28;20341;-84
2023/07/25 00:06:45;;;;;;;;;;;;;;;22.93;100.00;98560.88;5009233;28;19922;-85
2023/07/25 00:09:10;;;;;;;;;;;;;;;22.91;100.00;98554.97;5007214;28;19928;-85
2023/07/25 00:11:35;;;;;;;;;;;;;;;22.91;100.00;98543.38;5008729;28;19928;-84
2023/07/25 00:14:01;;;;;;;;;;;;;;;22.90;100.00;98545.25;5008978;28;19927;-84
2023/07/25 00:16:26;;;;;;;;;;;;;;;22.88;100.00;98544.69;5012207;28;19971;-85
2023/07/25 00:18:51;;;;;;;;;;;;;;;22.91;100.00;98530.75;5007744;28;19925;-84
2023/07/25 00:21:17;;;;;;;;;;;;;;;22.92;100.00;98537.72;5010490;28;20301;-83
2023/07/25 00:23:42;;;;;;;;;;;;;;;22.91;100.00;98533.44;5011477;28;19921;-84
2023/07/25 00:26:07;;;;;;;;;;;;;;;22.83;100.00;98525.78;5008759;28;20400;-85
2023/07/25 00:28:32;;;;;;;;;;;;;;;22.81;100.00;98522.50;5005845;28;20008;-84
2023/07/25 00:31:04;;;;;;;;;;;;;;;22.82;100.00;98561.81;5005945;28;19986;-85
2023/07/25 00:33:29;;;;;;;;;;;;;;;22.81;100.00;98560.16;5001181;28;19957;-82
2023/07/25 00:35:55;;;;;;;;;;;;;;;22.74;100.00;98548.75;4994930;28;19976;-84
2023/07/25 00:38:20;;;;;;;;;;;;;;;22.67;100.00;98553.47;5006290;28;20350;-85
2023/07/25 00:40:46;;;;;;;;;;;;;;;22.72;100.00;98548.19;5008503;28;20274;-85
2023/07/25 00:43:12;;;;;;;;;;;;;;;22.75;100.00;98536.94;5010529;28;19925;-84
2023/07/25 00:45:37;;;;;;;;;;;;;;;22.71;100.00;98539.28;5005715;28;19932;-85
2023/07/25 00:48:03;;;;;;;;;;;;;;;22.65;100.00;98542.13;5006333;28;20335;-86
2023/07/25 00:50:29;;;;;;;;;;;;;;;22.63;100.00;98541.56;5011886;28;19952;-84
2023/07/25 00:52:57;;;;;;;;;;;;;;;22.56;100.00;98525.59;5005962;28;19928;-86
2023/07/25 00:55:22;;;;;;;;;;;;;;;22.60;100.00;98525.94;5011046;28;20441;-86
2023/07/25 00:57:48;;;;;;;;;;;;;;;22.52;100.00;98526.31;5005110;28;20019;-86
2023/07/25 01:00:13;;;;;;;;;;;;;;;22.44;100.00;98528.34;5005040;28;20078;-85
2023/07/25 01:02:39;;;;;;;;;;;;;;;22.35;100.00;98554.00;5008384;28;20400;-86
2023/07/25 01:05:04;;;;;;;;;;;;;;;22.23;100.00;98572.06;5004587;28;19921;-86
2023/07/25 01:07:30;;;;;;;;;;;;;;;22.01;100.00;98589.94;5008471;28;20003;-85
2023/07/25 01:09:55;;;;;;;;;;;;;;;21.92;100.00;98600.19;5012568;28;19921;-85
2023/07/25 01:12:21;;;;;;;;;;;;;;;21.96;100.00;98596.03;5007680;28;19922;-85
2023/07/25 01:14:47;;;;;;;;;;;;;;;21.98;100.00;98593.09;5008535;28;19964;-85
2023/07/25 01:17:13;;;;;;;;;;;;;;;21.93;100.00;98595.66;5009972;28;19960;-86
2023/07/25 01:19:40;;;;;;;;;;;;;;;21.94;100.00;98591.91;5005602;28;19968;-84
2023/07/25 01:22:06;;;;;;;;;;;;;;;21.98;100.00;98585.03;5008030;28;19944;-85
2023/07/25 01:24:32;;;;;;;;;;;;;;;22.02;100.00;98578.13;5007761;28;19929;-85
2023/07/25 01:26:57;;;;;;;;;;;;;;;22.09;100.00;98567.25;5007498;28;19921;-84
2023/07/25 01:29:22;;;;;;;;;;;;;;;22.16;100.00;98552.59;5010299;28;19922;-85
2023/07/25 01:31:48;;;;;;;;;;;;;;;22.22;100.00;98540.88;5006316;28;20294;-85
2023/07/25 01:34:13;;;;;;;;;;;;;;;22.30;100.00;98543.19;5007050;28;19921;-86
2023/07/25 01:36:38;;;;;;;;;;;;;;;22.32;100.00;98529.50;5009236;28;19960;-85
2023/07/25 01:39:04;;;;;;;;;;;;;;;22.39;100.00;98508.63;5007344;28;19921;-84
2023/07/25 01:41:29;;;;;;;;;;;;;;;22.44;100.00;98506.84;5005978;28;19929;-86
2023/07/25 01:43:54;;;;;;;;;;;;;;;22.47;100.00;98516.31;5001915;28;19918;-85
2023/07/25 01:46:20;;;;;;;;;;;;;;;22.51;100.00;98508.56;5004286;28;19929;-86
2023/07/25 01:48:45;;;;;;;;;;;;;;;22.53;100.00;98495.69;5008172;28;19925;-87
2023/07/25 01:51:10;;;;;;;;;;;;;;;22.55;100.00;98497.09;4989021;28;20011;-83
2023/07/25 01:53:36;;;;;;;;;;;;;;;22.60;100.00;98499.03;5006040;28;19932;-84
2023/07/25 01:56:01;;;;;;;;;;;;;;;22.62;100.00;98483.47;5009727;28;19922;-83
2023/07/25 01:58:26;;;;;;;;;;;;;;;22.62;100.00;98467.34;5002610;28;19931;-83
2023/07/25 02:00:59;;;;;;;;;;;;;;;22.63;100.00;98461.72;5007116;28;20261;-83
2023/07/25 02:03:25;;;;;;;;;;;;;;;22.60;100.00;98450.63;5002066;28;19961;-84
2023/07/25 02:05:50;;;;;;;;;;;;;;;22.63;100.00;98439.38;4989063;28;19976;-84
2023/07/25 02:08:15;;;;;;;;;;;;;;;22.60;100.00;98423.75;5008383;28;19922;-84
2023/07/25 02:10:41;;;;;;;;;;;;;;;22.52;100.00;98416.09;5008114;28;19968;-84
2023/07/25 02:13:06;;;;;;;;;;;;;;;22.58;100.00;98417.81;5004779;28;20024;-83
2023/07/25 02:15:32;;;;;;;;;;;;;;;22.60;100.00;98413.81;4991535;28;20377;-85
2023/07/25 02:17:57;;;;;;;;;;;;;;;22.62;100.00;98405.50;5005927;28;19921;-85
2023/07/25 02:20:25;;;;;;;;;;;;;;;22.52;100.00;98389.22;5007489;28;19968;-85
2023/07/25 02:22:51;;;;;;;;;;;;;;;22.46;100.00;98364.97;5004536;28;19947;-85
2023/07/25 02:25:16;;;;;;;;;;;;;;;22.38;100.00;98351.94;5006391;28;19932;-84
2023/07/25 02:27:42;;;;;;;;;;;;;;;22.31;100.00;98339.75;5007194;28;19932;-85
2023/07/25 02:30:07;;;;;;;;;;;;;;;22.28;100.00;98340.22;5009855;28;19926;-85
2023/07/25 02:32:32;;;;;;;;;;;;;;;22.29;100.00;98353.44;5004665;28;19929;-85
2023/07/25 02:34:58;;;;;;;;;;;;;;;22.28;100.00;98362.53;4995136;28;19964;-84
2023/07/25 02:37:23;;;;;;;;;;;;;;;22.32;100.00;98350.25;5008872;28;19922;-86
2023/07/25 02:39:48;;;;;;;;;;;;;;;22.32;100.00;98352.94;5010435;28;19988;-85
2023/07/25 02:42:14;;;;;;;;;;;;;;;22.27;100.00;98350.16;5012644;28;20447;-85
2023/07/25 02:44:39;;;;;;;;;;;;;;;22.22;100.00;98358.16;5010822;28;19937;-85
2023/07/25 02:47:04;;;;;;;;;;;;;;;22.25;100.00;98368.44;5009887;28;19928;-83
2023/07/25 02:49:30;;;;;;;;;;;;;;;22.26;100.00;98377.31;5012799;28;20045;-84
2023/07/25 02:51:55;;;;;;;;;;;;;;;22.20;100.00;98375.59;5007036;28;20386;-83
2023/07/25 02:54:20;;;;;;;;;;;;;;;22.13;100.00;98381.13;5011896;28;20001;-84
2023/07/25 02:56:46;;;;;;;;;;;;;;;22.05;100.00;98362.72;5009373;28;20036;-83
2023/07/25 02:59:11;;;;;;;;;;;;;;;22.02;100.00;98373.97;5007241;28;20268;-83
2023/07/25 03:01:36;;;;;;;;;;;;;;;22.04;100.00;98363.78;5009624;28;19933;-85
2023/07/25 03:04:02;;;;;;;;;;;;;;;22.00;100.00;98360.78;5013545;28;20413;-86
2023/07/25 03:06:27;;;;;;;;;;;;;;;21.98;100.00;98365.59;4989993;28;20390;-85
2023/07/25 03:08:52;;;;;;;;;;;;;;;21.92;100.00;98371.91;4994491;28;19925;-86
2023/07/25 03:11:17;;;;;;;;;;;;;;;21.96;100.00;98386.53;5009285;28;19921;-82
2023/07/25 03:13:43;;;;;;;;;;;;;;;21.95;100.00;98395.63;5009924;28;19991;-85
2023/07/25 03:16:08;;;;;;;;;;;;;;;21.92;100.00;98406.81;5011922;28;20340;-86
2023/07/25 03:18:33;;;;;;;;;;;;;;;21.94;100.00;98404.72;5006504;28;19922;-83
2023/07/25 03:20:59;;;;;;;;;;;;;;;21.97;100.00;98414.19;4991406;28;20457;-85
2023/07/25 03:23:24;;;;;;;;;;;;;;;21.98;100.00;98426.53;5012677;28;19922;-85
2023/07/25 03:25:49;;;;;;;;;;;;;;;21.98;100.00;98431.91;5006890;28;19929;-86
2023/07/25 03:28:15;;;;;;;;;;;;;;;21.92;100.00;98448.97;5010942;28;20255;-84
2023/07/25 03:30:40;;;;;;;;;;;;;;;21.93;100.00;98455.97;5012096;28;19921;-88
2023/07/25 03:33:06;;;;;;;;;;;;;;;21.90;100.00;98453.78;5010449;28;19926;-86
2023/07/25 03:35:31;;;;;;;;;;;;;;;21.85;100.00;98464.44;5007929;28;19921;-88
2023/07/25 03:37:56;;;;;;;;;;;;;;;21.86;100.00;98468.75;5008684;28;19964;-88
2023/07/25 03:40:22;;;;;;;;;;;;;;;21.84;100.00;98484.28;5005498;28;19921;-89
2023/07/25 03:42:47;;;;;;;;;;;;;;;21.81;100.00;98485.59;5011739;28;19922;-86
2023/07/25 03:45:12;;;;;;;;;;;;;;;21.77;100.00;98499.72;4995287;28;20788;-87
2023/07/25 03:47:38;;;;;;;;;;;;;;;21.76;100.00;98482.00;5009985;28;20008;-88
2023/07/25 03:50:03;;;;;;;;;;;;;;;21.73;100.00;98490.53;5008999;28;19962;-88
2023/07/25 03:52:29;;;;;;;;;;;;;;;21.76;100.00;98503.47;4991769;28;19972;-88
2023/07/25 03:54:54;;;;;;;;;;;;;;;21.73;100.00;98503.97;5009991;28;19933;-89
2023/07/25 03:57:19;;;;;;;;;;;;;;;21.72;100.00;98496.97;4991228;28;19937;-88
2023/07/25 03:59:45;;;;;;;;;;;;;;;21.72;100.00;98484.34;5007319;28;20302;-88
2023/07/25 04:02:10;;;;;;;;;;;;;;;21.72;100.00;98465.56;5012322;28;20270;-88
2023/07/25 04:04:36;;;;;;;;;;;;;;;21.67;100.00;98462.78;5009130;28;19925;-88
2023/07/25 04:07:01;;;;;;;;;;;;;;;21.67;100.00;98465.47;5008861;28;19921;-89
2023/07/25 04:09:26;;;;;;;;;;;;;;;21.64;100.00;98490.91;5011412;28;20390;-88
2023/07/25 04:11:51;;;;;;;;;;;;;;;21.60;100.00;98494.31;5011701;28;20701;-89
2023/07/25 04:14:17;;;;;;;;;;;;;;;21.58;100.00;98499.91;5009984;28;19932;-89
2023/07/25 04:16:42;;;;;;;;;;;;;;;21.44;100.00;98506.59;4999953;28;19932;-89
2023/07/25 04:19:07;;;;;;;;;;;;;;;21.43;100.00;98513.06;5002789;28;19922;-89
2023/07/25 04:21:33;;;;;;;;;;;;;;;21.46;100.00;98512.56;5011010;28;19925;-88
2023/07/25 04:23:58;;;;;;;;;;;;;;;21.47;100.00;98516.06;5006655;28;19956;-90
2023/07/25 04:26:23;;;;;;;;;;;;;;;21.49;100.00;98504.06;5017886;28;19902;-89
2023/07/25 04:28:49;;;;;;;;;;;;;;;21.53;100.00;98505.19;5012205;28;20428;-88
2023/07/25 04:31:15;;;;;;;;;;;;;;;21.54;100.00;98489.91;5013499;28;19929;-89
2023/07/25 04:33:40;;;;;;;;;;;;;;;21.55;100.00;98487.00;5006982;28;20484;-89
2023/07/25 04:36:05;;;;;;;;;;;;;;;21.47;100.00;98498.09;5010821;28;19968;-88
2023/07/25 04:38:31;;;;;;;;;;;;;;;21.43;100.00;98515.72;5005160;28;20020;-89
2023/07/25 04:40:56;;;;;;;;;;;;;;;21.48;100.00;98518.50;5010100;28;19929;-89
2023/07/25 04:43:22;;;;;;;;;;;;;;;21.51;100.00;98511.84;5009242;28;19929;-89
2023/07/25 04:45:48;;;;;;;;;;;;;;;21.51;100.00;98522.56;5009860;28;19921;-87
2023/07/25 04:48:13;;;;;;;;;;;;;;;21.38;100.00;98530.91;4992648;28;19941;-88
2023/07/25 04:50:38;;;;;;;;;;;;;;;21.35;100.00;98529.50;5013073;28;19944;-88
2023/07/25 04:53:04;;;;;;;;;;;;;;;21.24;100.00;98525.00;5007277;28;19925;-88
2023/07/25 04:55:29;;;;;;;;;;;;;;;21.32;100.00;98508.53;4993058;28;20288;-89
2023/07/25 04:57:54;;;;;;;;;;;;;;;21.37;100.00;98484.47;5009769;28;19928;-89
2023/07/25 05:00:20;;;;;;;;;;;;;;;21.38;100.00;98459.28;5008823;28;19963;-88
2023/07/25 05:02:45;;;;;;;;;;;;;;;21.44;100.00;98452.16;4999780;28;19921;-88
2023/07/25 05:05:10;;;;;;;;;;;;;;;21.48;100.00;98451.41;5006342;28;19925;-89
2023/07/25 05:07:36;;;;;;;;;;;;;;;21.51;100.00;98442.88;5010336;28;19930;-84
2023/07/25 05:10:01;;;;;;;;;;;;;;;21.62;100.00;98439.31;5010783;28;20382;-84
2023/07/25 05:12:26;;;;;;;;;;;;;;;21.71;100.00;98422.81;5005638;28;19932;-85
2023/07/25 05:14:52;;;;;;;;;;;;;;;21.76;100.00;98401.44;5005778;28;19929;-84
2023/07/25 05:17:17;;;;;;;;;;;;;;;21.82;100.00;98398.59;5010320;28;19925;-85
2023/07/25 05:19:42;;;;;;;;;;;;;;;21.83;100.00;98388.66;5008076;28;20027;-83
2023/07/25 05:22:08;;;;;;;;;;;;;;;21.85;100.00;98384.69;5009049;28;20035;-84
2023/07/25 05:24:33;;;;;;;;;;;;;;;21.91;100.00;98372.16;5008581;28;20460;-85
2023/07/25 05:26:58;;;;;;;;;;;;;;;21.95;100.00;98357.22;5005556;28;20353;-86
2023/07/25 05:29:24;;;;;;;;;;;;;;;21.99;100.00;98361.03;5007305;28;20456;-82
2023/07/25 05:31:49;;;;;;;;;;;;;;;22.03;100.00;98354.13;4997679;28;20378;-77
2023/07/25 05:34:14;;;;;;;;;;;;;;;22.11;100.00;98344.81;5005678;28;19926;-75
2023/07/25 05:36:40;;;;;;;;;;;;;;;22.14;100.00;98338.97;5006037;28;19937;-79
2023/07/25 05:39:05;;;;;;;;;;;;;;;22.18;100.00;98338.22;5007516;28;19925;-76
2023/07/25 05:41:30;;;;;;;;;;;;;;;22.22;100.00;98325.91;5004538;28;19928;-77
2023/07/25 05:43:56;;;;;;;;;;;;;;;22.27;100.00;98331.34;4997581;28;20481;-76
2023/07/25 05:46:21;;;;;;;;;;;;;;;22.33;100.00;98333.06;5000487;28;20332;-75
2023/07/25 05:48:47;;;;;;;;;;;;;;;22.35;100.00;98324.75;5002428;28;20012;-75
2023/07/25 05:51:13;;;;;;;;;;;;;;;22.36;100.00;98332.56;5006860;28;19924;-76
2023/07/25 05:53:38;;;;;;;;;;;;;;;22.36;100.00;98346.00;5002401;28;19931;-76
2023/07/25 05:56:03;;;;;;;;;;;;;;;22.31;100.00;98359.38;5005028;28;19921;-76
2023/07/25 05:58:29;;;;;;;;;;;;;;;22.32;100.00;98368.25;5000875;28;20289;-77
2023/07/25 06:00:55;;;;;;;;;;;;;;;22.29;100.00;98353.44;4998378;28;19971;-77
2023/07/25 06:03:21;;;;;;;;;;;;;;;22.29;100.00;98352.63;5006213;28;19925;-77
2023/07/25 06:05:46;;;;;;;;;;;;;;;22.30;100.00;98371.19;5001042;28;19922;-78
2023/07/25 06:08:11;;;;;;;;;;;;;;;22.32;100.00;98379.81;4999277;28;20016;-78
2023/07/25 06:10:38;;;;;;;;;;;;;;;22.33;100.00;98380.59;5008887;28;20390;-77
2023/07/25 06:13:04;;;;;;;;;;;;;;;22.37;100.00;98382.59;5001710;28;19922;-78
2023/07/25 06:15:30;;;;;;;;;;;;;;;22.45;100.00;98373.25;5010289;28;19924;-76
2023/07/25 06:17:55;;;;;;;;;;;;;;;22.50;100.00;98391.34;4994647;28;19922;-76
2023/07/25 06:20:21;;;;;;;;;;;;;;;22.61;100.00;98393.13;5004060;28;19968;-76
2023/07/25 06:22:48;;;;;;;;;;;;;;;22.63;100.00;98401.72;5025910;22;19933;-78
2023/07/25 06:25:15;;;;;;;;;;;;;;;22.59;100.00;98400.63;5030315;28;19930;-80
2023/07/25 06:27:41;;;;;;;;;;;;;;;22.66;100.00;98395.88;5028080;28;19921;-75
2023/07/25 06:30:07;;;;;;;;;;;;;;;22.70;100.00;98392.44;5027489;28;19929;-80
2023/07/25 06:32:34;;;;;;;;;;;;;;;22.72;100.00;98373.41;5032332;28;19925;-77
2023/07/25 06:35:00;;;;;;;;;;;;;;;22.77;100.00;98376.97;5032063;28;20320;-77
2023/07/25 06:37:26;;;;;;;;;;;;;;;22.56;100.00;98374.25;5029726;28;19921;-78
2023/07/25 06:39:51;;;;;;;;;;;;;;;22.45;100.00;98374.06;5035023;28;19932;-78
2023/07/25 06:42:16;;;;;;;;;;;;;;;22.55;100.00;98368.03;5024874;28;19961;-78
2023/07/25 06:44:45;;;;;;;;;;;;;;;22.53;100.00;98363.97;5014212;28;20345;-77
2023/07/25 06:47:10;;;;;;;;;;;;;;;22.56;100.00;98368.88;5007516;28;19925;-74
2023/07/25 06:49:36;;;;;;;;;;;;;;;22.43;100.00;98381.59;5004391;28;19925;-77
2023/07/25 06:52:01;;;;;;;;;;;;;;;22.44;100.00;98377.81;5031148;28;19970;-78
2023/07/25 06:54:28;;;;;;;;;;;;;;;22.51;100.00;98358.00;5026787;28;20011;-79
2023/07/25 06:56:53;;;;;;;;;;;;;;;22.55;100.00;98357.28;5019935;28;19921;-77
2023/07/25 06:59:19;;;;;;;;;;;;;;;22.52;100.00;98362.34;5031583;28;19921;-79
2023/07/25 07:01:44;;;;;;;;;;;;;;;22.63;100.00;98364.09;5027830;28;19925;-77
2023/07/25 07:04:10;;;;;;;;;;;;;;;22.68;100.00;98361.50;5030736;28;20036;-80
2023/07/25 07:06:35;;;;;;;;;;;;;;;22.73;100.00;98354.34;5030898;28;20506;-79
2023/07/25 07:09:01;;;;;;;;;;;;;;;22.84;100.00;98350.69;5032555;28;19921;-78
2023/07/25 07:11:26;;;;;;;;;;;;;;;22.82;100.00;98343.94;5011828;28;19953;-79
2023/07/25 07:13:52;;;;;;;;;;;;;;;22.88;100.00;98334.88;5031988;28;19925;-77
2023/07/25 07:16:18;;;;;;;;;;;;;;;22.95;100.00;98346.25;5030304;28;20385;-78
2023/07/25 07:18:45;;;;;;;;;;;;;;;23.04;100.00;98344.72;5031021;28;19928;-77
2023/07/25 07:21:10;;;;;;;;;;;;;;;23.08;100.00;98342.38;5029189;28;19921;-78
2023/07/25 07:23:36;;;;;;;;;;;;;;;23.20;100.00;98338.47;5029484;28;19970;-78
2023/07/25 07:26:01;;;;;;;;;;;;;;;23.36;100.00;98335.91;5027495;28;19921;-78
2023/07/25 07:28:26;;;;;;;;;;;;;;;23.49;100.00;98340.94;5031336;28;19971;-78
2023/07/25 07:30:53;;;;;;;;;;;;;;;23.60;100.00;98342.63;5018316;28;20365;-79
2023/07/25 07:33:18;;;;;;;;;;;;;;;23.69;100.00;98324.94;5023368;28;19933;-78
2023/07/25 07:35:44;;;;;;;;;;;;;;;23.72;100.00;98319.03;5025328;28;19925;-80
2023/07/25 07:38:10;;;;;;;;;;;;;;;23.74;100.00;98322.28;5022737;28;19983;-79
2023/07/25 07:40:35;;;;;;;;;;;;;;;23.77;100.00;98327.16;5013053;28;19926;-74
2023/07/25 07:43:01;;;;;;;;;;;;;;;23.74;100.00;98319.59;5025930;28;19921;-77
2023/07/25 07:45:27;;;;;;;;;;;;;;;23.59;100.00;98320.28;4999127;28;21491;-75
2023/07/25 07:47:52;;;;;;;;;;;;;;;23.62;100.00;98318.97;5013558;28;19929;-73
2023/07/25 07:50:19;;;;;;;;;;;;;;;23.67;100.00;98317.13;5020911;28;19922;-75
2023/07/25 07:52:44;;;;;;;;;;;;;;;23.63;100.00;98309.78;5027757;28;19975;-76
2023/07/25 07:55:10;;;;;;;;;;;;;;;23.63;100.00;98315.19;5029382;28;20017;-76
2023/07/25 07:57:42;;;;;;;;;;;;;;;23.61;100.00;98311.97;5027427;28;20780;-75
2023/07/25 08:00:08;;;;;;;;;;;;;;;23.69;100.00;98303.38;5025765;28;19928;-75
2023/07/25 08:02:37;;;;;;;;;;;;;;;23.76;100.00;98303.97;5029730;28;20343;-76
2023/07/25 08:05:03;;;;;;;;;;;;;;;23.83;100.00;98304.59;5026275;28;19929;-75
2023/07/25 08:07:28;;;;;;;;;;;;;;;23.89;100.00;98306.25;5028438;28;19925;-76
2023/07/25 08:09:54;;;;;;;;;;;;;;;23.98;100.00;98309.25;5028464;28;19929;-75
2023/07/25 08:12:20;;;;;;;;;;;;;;;24.02;100.00;98307.69;5028899;28;19921;-76
2023/07/25 08:14:45;;;;;;;;;;;;;;;24.07;100.00;98300.44;5029583;28;19921;-74
2023/07/25 08:17:11;;;;;;;;;;;;;;;24.12;100.00;98296.16;5027889;28;19922;-75
2023/07/25 08:19:36;;;;;;;;;;;;;;;24.15;100.00;98295.63;5027193;28;19925;-75
2023/07/25 08:22:02;;;;;;;;;;;;;;;24.13;100.00;98292.38;5013554;28;20019;-73
2023/07/25 08:24:27;;;;;;;;;;;;;;;24.16;100.00;98294.53;5024970;28;19931;-75
2023/07/25 08:26:52;;;;;;;;;;;;;;;24.19;100.00;98294.06;5030229;28;19921;-75
2023/07/25 08:29:18;;;;;;;;;;;;;;;24.24;100.00;98299.47;5023297;28;19922;-75
2023/07/25 08:31:43;;;;;;;;;;;;;;;24.28;100.00;98296.00;5028568;28;19929;-76
2023/07/25 08:34:09;;;;;;;;;;;;;;;24.31;100.00;98286.59;5028630;28;19928;-75
2023/07/25 08:36:34;;;;;;;;;;;;;;;24.35;100.00;98290.38;5027714;28;19925;-76
2023/07/25 08:39:00;;;;;;;;;;;;;;;24.37;100.00;98299.84;5025689;28;19928;-76
2023/07/25 08:41:26;;;;;;;;;;;;;;;24.38;100.00;98300.66;5030516;28;19928;-76
2023/07/25 08:43:52;;;;;;;;;;;;;;;24.38;100.00;98300.66;5028404;28;19936;-76
2023/07/25 08:46:19;;;;;;;;;;;;;;;24.47;100.00;98299.06;5029275;28;20349;-76
2023/07/25 08:48:46;;;;;;;;;;;;;;;24.57;100.00;98303.69;5029827;28;20336;-77
2023/07/25 08:51:18;;;;;;;;;;;;;;;24.62;100.00;98304.53;5027406;28;19975;-77
2023/07/25 08:54:02;;;;;;;;;;;;;;;24.64;100.00;98299.69;5027907;28;19925;-76
2023/07/25 08:56:28;;;;;;;;;;;;;;;24.69;100.00;98302.38;5024730;28;19921;-75
2023/07/25 08:58:54;;;;;;;;;;;;;;;24.75;100.00;98306.72;5024392;28;19921;-76
2023/07/25 09:01:20;;;;;;;;;;;;;;;24.82;100.00;98296.50;5027380;28;19921;-76
2023/07/25 09:03:45;;;;;;;;;;;;;;;24.90;100.00;98295.22;5031256;28;19921;-76
2023/07/25 09:06:12;;;;;;;;;;;;;;;24.99;100.00;98306.28;5025164;28;19928;-76
2023/07/25 09:08:38;;;;;;;;;;;;;;;25.06;100.00;98296.06;5029487;28;20062;-76
2023/07/25 09:11:03;;;;;;;;;;;;;;;25.13;100.00;98296.63;5027279;28;20016;-76
2023/07/25 09:13:29;;;;;;;;;;;;;;;25.18;100.00;98294.75;5028654;28;19921;-76
2023/07/25 09:15:55;;;;;;;;;;;;;;;25.22;100.00;98300.41;5028274;28;20416;-76
2023/07/25 09:18:20;;;;;;;;;;;;;;;25.26;100.00;98290.72;5027317;28;19967;-76
2023/07/25 09:20:46;;;;;;;;;;;;;;;25.32;100.00;98311.25;5026657;28;19921;-76
2023/07/25 09:23:18;;;;;;;;;;;;;;;25.36;100.00;98306.91;5030376;28;19921;-76
2023/07/25 09:25:44;;;;;;;;;;;;;;;25.40;100.00;98302.59;5024883;28;19932;-76
2023/07/25 09:28:09;;;;;;;;;;;;;;;25.40;100.00;98301.78;5026365;28;19917;-76
2023/07/25 09:30:36;;;;;;;;;;;;;;;25.41;100.00;98300.69;5009222;28;19925;-75
2023/07/25 09:33:01;;;;;;;;;;;;;;;25.45;100.00;98305.28;5028976;28;19928;-75
2023/07/25 09:35:27;;;;;;;;;;;;;;;25.50;100.00;98299.91;5028203;28;20001;-75
2023/07/25 09:37:53;;;;;;;;;;;;;;;25.55;100.00;98308.03;5027985;28;19921;-75
2023/07/25 09:40:19;;;;;;;;;;;;;;;25.59;100.00;98295.63;5029789;28;19967;-76
2023/07/25 09:42:46;;;;;;;;;;;;;;;25.65;100.00;98299.94;5032954;28;19925;-75
2023/07/25 09:45:12;;;;;;;;;;;;;;;25.70;100.00;98296.41;5025889;28;20340;-76
2023/07/25 09:47:38;;;;;;;;;;;;;;;25.76;100.00;98299.94;5030345;28;20324;-76
2023/07/25 09:50:05;;;;;;;;;;;;;;;25.78;100.00;98297.78;5028723;28;19993;-77
2023/07/25 09:52:41;;;;;;;;;;;;;;;25.83;100.00;98297.78;5029025;28;19921;-77
2023/07/25 09:55:07;;;;;;;;;;;;;;;25.81;100.00;98294.53;5024725;28;20047;-77
2023/07/25 09:57:33;;;;;;;;;;;;;;;25.88;100.00;98298.56;5029357;28;19921;-77
2023/07/25 09:59:58;;;;;;;;;;;;;;;25.91;100.00;98298.03;5024311;28;19921;-77
2023/07/25 10:02:24;;;;;;;;;;;;;;;25.93;100.00;98298.56;5032329;28;20161;-77
2023/07/25 10:04:50;;;;;;;;;;;;;;;26.01;100.00;98291.81;5030268;28;20255;-76
2023/07/25 10:07:17;;;;;;;;;;;;;;;26.07;100.00;98286.13;5030802;28;19925;-77
2023/07/25 10:09:44;;;;;;;;;;;;;;;26.14;100.00;98283.13;5022417;28;19917;-74
2023/07/25 10:12:11;;;;;;;;;;;;;;;26.19;100.00;98283.13;5027145;28;19921;-74
2023/07/25 10:14:37;;;;;;;;;;;;;;;26.25;100.00;98287.47;5014372;28;19926;-75
2023/07/25 10:17:02;;;;;;;;;;;;;;;26.31;100.00;98296.38;5028100;28;19923;-75
2023/07/25 10:19:43;;;;;;;;;;;;;;;26.35;100.00;98282.00;5028114;28;19971;-74
2023/07/25 10:22:08;;;;;;;;;;;;;;;26.37;100.00;98284.44;5019084;28;19921;-74
2023/07/25 10:24:34;;;;;;;;;;;;;;;26.38;100.00;98284.19;5021009;28;20297;-74
2023/07/25 10:26:59;;;;;;;;;;;;;;;26.40;100.00;98284.69;5018730;28;20016;-73
2023/07/25 10:29:41;;;;;;;;;;;;;;;26.46;100.00;98277.38;5020404;28;19985;-73
2023/07/25 10:32:07;;;;;;;;;;;;;;;26.58;100.00;98279.75;5020399;28;20007;-74
2023/07/25 10:34:43;;;;;;;;;;;;;;;26.63;100.00;98285.16;5018431;28;20008;-73
2023/07/25 10:37:21;;;;;;;;;;;;;;;26.68;100.00;98285.16;5023091;28;19927;-74
2023/07/25 10:40:00;;;;;;;;;;;;;;;26.70;100.00;98285.66;5024040;28;19921;-75
2023/07/25 10:42:34;;;;;;;;;;;;;;;26.74;100.00;98284.81;5018767;28;20012;-74
2023/07/25 10:45:00;;;;;;;;;;;;;;;26.75;100.00;98289.16;5021472;28;19967;-73
2023/07/25 10:47:45;;;;;;;;;;;;;;;26.74;100.00;98278.63;5029374;28;19956;-74
2023/07/25 10:50:10;;;;;;;;;;;;;;;26.75;100.00;98270.22;5016952;28;19922;-73
2023/07/25 10:52:42;;;;;;;;;;;;;;;26.77;100.00;98273.44;5021826;28;19986;-74
2023/07/25 10:55:10;;;;;;;;;;;;;;;26.83;100.00;98277.75;5016048;28;19918;-73
2023/07/25 10:57:37;;;;;;;;;;;;;;;26.89;100.00;98262.31;4988395;28;19933;-75
2023/07/25 11:00:09;;;;;;;;;;;;;;;26.95;100.00;98258.50;5034616;28;19921;-75
2023/07/25 11:02:43;;;;;;;;;;;;;;;27.02;100.00;98264.41;5017173;28;19922;-75
2023/07/25 11:05:12;;;;;;;;;;;;;;;27.10;100.00;98265.69;5010598;28;20000;-73
2023/07/25 11:07:40;;;;;;;;;;;;;;;27.14;100.00;98259.47;5028494;28;19927;-74
2023/07/25 11:10:06;;;;;;;;;;;;;;;27.18;100.00;98265.94;5020868;28;19922;-75
2023/07/25 11:12:32;;;;;;;;;;;;;;;27.20;100.00;98250.22;5028060;28;19921;-73
2023/07/25 11:14:57;;;;;;;;;;;;;;;27.20;100.00;98244.00;5026715;28;19928;-74
2023/07/25 11:17:27;;;;;;;;;;;;;;;27.22;100.00;98242.59;5033735;28;19928;-74
2023/07/25 11:19:52;;;;;;;;;;;;;;;27.27;100.00;98239.06;5024130;28;19983;-73
2023/07/25 11:22:18;;;;;;;;;;;;;;;27.31;100.00;98234.69;5032339;28;19921;-71
2023/07/25 11:24:44;;;;;;;;;;;;;;;27.37;98.03;98230.84;5025237;28;20027;-73
2023/07/25 11:27:10;;;;;;;;;;;;;;;27.44;100.00;98233.25;5024687;28;19925;-73
2023/07/25 11:29:36;;;;;;;;;;;;;;;27.52;99.72;98224.50;5024670;28;19975;-74
2023/07/25 11:32:02;;;;;;;;;;;;;;;27.57;98.97;98219.03;5027161;28;19921;-73
2023/07/25 11:34:28;;;;;;;;;;;;;;;27.64;96.23;98216.81;5022520;28;20389;-73
2023/07/25 11:36:54;;;;;;;;;;;;;;;27.70;94.50;98221.91;5022614;28;19958;-72
2023/07/25 11:39:20;;;;;;;;;;;;;;;27.79;96.84;98218.59;5027683;28;19984;-74
2023/07/25 11:41:46;;;;;;;;;;;;;;;27.85;96.09;98202.00;5026051;28;20037;-73
2023/07/25 11:44:12;;;;;;;;;;;;;;;27.96;94.66;98203.50;5031371;28;19921;-75
2023/07/25 11:46:42;;;;;;;;;;;;;;;28.08;94.46;98213.94;5021672;28;19967;-74
2023/07/25 11:49:08;;;;;;;;;;;;;;;28.17;91.59;98203.28;5029573;28;19921;-74
2023/07/25 11:51:35;;;;;;;;;;;;;;;28.24;90.34;98209.97;5021879;28;19921;-73
2023/07/25 11:54:01;;;;;;;;;;;;;;;28.29;91.79;98200.97;5025657;28;19967;-73
2023/07/25 11:56:27;;;;;;;;;;;;;;;28.33;88.40;98202.81;5027939;28;19921;-72
2023/07/25 11:58:53;;;;;;;;;;;;;;;28.35;87.35;98210.66;5016214;28;19972;-73
2023/07/25 12:01:26;;;;;;;;;;;;;;;28.35;88.34;98199.78;5025504;28;20382;-74
2023/07/25 12:03:52;;;;;;;;;;;;;;;28.38;88.09;98204.66;5025066;28;19952;-72
2023/07/25 12:06:25;;;;;;;;;;;;;;;28.38;87.39;98204.66;5021582;28;19930;-73
2023/07/25 12:08:51;;;;;;;;;;;;;;;28.38;86.39;98200.03;5028964;28;19969;-72
2023/07/25 12:11:16;;;;;;;;;;;;;;;28.42;88.23;98194.84;5015726;28;19963;-73
2023/07/25 12:13:51;;;;;;;;;;;;;;;28.45;85.53;98205.13;5005697;28;19926;-72
2023/07/25 12:16:27;;;;;;;;;;;;;;;28.55;87.38;98191.41;5011534;28;19932;-75
2023/07/25 12:18:55;;;;;;;;;;;;;;;28.70;87.71;98185.75;5021085;28;19925;-74
2023/07/25 12:21:22;;;;;;;;;;;;;;;28.80;84.07;98185.66;5028874;28;20381;-75
2023/07/25 12:23:51;;;;;;;;;;;;;;;28.82;80.97;98186.16;5010768;28;19922;-75
2023/07/25 12:26:20;;;;;;;;;;;;;;;28.84;80.31;98183.97;5024363;28;19928;-74
2023/07/25 12:28:46;;;;;;;;;;;;;;;28.82;79.88;98182.63;5027256;28;20353;-74
2023/07/25 12:31:12;;;;;;;;;;;;;;;28.81;79.43;98176.38;5000267;28;19930;-73
2023/07/25 12:33:38;;;;;;;;;;;;;;;28.81;79.12;98184.53;5019120;28;19925;-74